createdAt,value
2022-08-17T00:00:42.944Z,99620.97
2022-08-17T00:03:13.607Z,99619.70
2022-08-17T00:05:47.099Z,99624.31
2022-08-17T00:08:17.102Z,99618.40
2022-08-17T00:10:46.593Z,99618.73
2022-08-17T00:13:29.406Z,99613.42
2022-08-17T00:16:01.488Z,99615.60
2022-08-17T00:19:01.182Z,99612.17
2022-08-17T00:21:25.165Z,99612.23
2022-08-17T00:23:53.705Z,99613.52
2022-08-17T00:26:43.755Z,99618.05
2022-08-17T00:29:10.564Z,99619.45
2022-08-17T00:31:48.626Z,99619.70
2022-08-17T00:34:16.997Z,99618.81
2022-08-17T00:36:44.819Z,99619.08
2022-08-17T00:39:12.427Z,99617.73
2022-08-17T00:41:42.164Z,99615.88
2022-08-17T00:44:11.928Z,99614.66
2022-08-17T00:46:42.732Z,99613.03
2022-08-17T00:49:13.023Z,99612.65
2022-08-17T00:51:59.697Z,99607.89
2022-08-17T00:54:33.276Z,99619.23
2022-08-17T00:57:13.685Z,99626.98
2022-08-17T00:59:47.044Z,99627.04
2022-08-17T01:02:36.690Z,99625.87
2022-08-17T01:05:14.939Z,99623.39
2022-08-17T01:07:43.503Z,99628.33
2022-08-17T01:10:58.953Z,99628.71
2022-08-17T01:13:04.547Z,99630.48
2022-08-17T01:15:36.648Z,99631.23
2022-08-17T01:18:08.728Z,99632.45
2022-08-17T01:20:48.410Z,99634.75
2022-08-17T01:23:20.618Z,99637.20
2022-08-17T01:25:54.952Z,99633.85
2022-08-17T01:28:52.637Z,99637.70
2022-08-17T01:31:12.526Z,99641.02
2022-08-17T01:33:40.500Z,99639.08
2022-08-17T01:36:08.822Z,99639.96
2022-08-17T01:38:38.298Z,99641.20
2022-08-17T01:41:11.656Z,99639.20
2022-08-17T01:43:49.206Z,99644.28
2022-08-17T01:46:27.927Z,99644.33
2022-08-17T01:48:57.442Z,99644.00
2022-08-17T01:51:32.391Z,99642.64
2022-08-17T01:54:06.576Z,99644.65
2022-08-17T01:56:37.407Z,99638.75
2022-08-17T01:59:05.300Z,99640.18
2022-08-17T02:01:34.722Z,99633.67
2022-08-17T02:04:04.291Z,99630.96
2022-08-17T02:06:45.097Z,99630.51
2022-08-17T02:09:25.491Z,99630.86
2022-08-17T02:11:56.931Z,99640.23
2022-08-17T02:14:25.834Z,99636.41
2022-08-17T02:16:54.078Z,99640.54
2022-08-17T02:19:22.418Z,99640.70
2022-08-17T02:21:52.034Z,99638.42
2022-08-17T02:24:58.170Z,99638.05
2022-08-17T02:27:25.686Z,99645.65
2022-08-17T02:29:53.517Z,99643.10
2022-08-17T02:32:27.863Z,99641.59
2022-08-17T02:34:58.078Z,99638.54
2022-08-17T02:37:27.538Z,99633.91
2022-08-17T02:39:59.484Z,99636.55
2022-08-17T02:42:31.465Z,99640.11
2022-08-17T02:45:00.621Z,99638.41
2022-08-17T02:47:29.098Z,99639.15
2022-08-17T02:49:56.995Z,99640.30
2022-08-17T02:52:42.496Z,99638.21
2022-08-17T02:55:15.940Z,99634.06
2022-08-17T02:57:44.317Z,99634.23
2022-08-17T03:00:17.132Z,99637.25
2022-08-17T03:02:45.493Z,99635.05
2022-08-17T03:05:17.134Z,99639.38
2022-08-17T03:07:44.806Z,99636.40
2022-08-17T03:10:13.471Z,99640.09
2022-08-17T03:12:43.171Z,99637.70
2022-08-17T03:15:20.619Z,99637.80
2022-08-17T03:17:49.165Z,99635.80
2022-08-17T03:20:17.151Z,99634.70
2022-08-17T03:22:53.152Z,99633.79
2022-08-17T03:25:25.499Z,99637.39
2022-08-17T03:27:53.691Z,99637.11
2022-08-17T03:30:22.963Z,99638.88
2022-08-17T03:32:54.719Z,99638.55
2022-08-17T03:35:25.788Z,99636.33
2022-08-17T03:38:00.297Z,99637.11
2022-08-17T03:40:39.866Z,99638.39
2022-08-17T03:43:19.842Z,99635.52
2022-08-17T03:46:02.413Z,99639.96
2022-08-17T03:48:46.254Z,99639.97
2022-08-17T03:51:33.485Z,99638.06
2022-08-17T03:54:17.628Z,99643.70
2022-08-17T03:57:13.443Z,99646.94
2022-08-17T03:59:42.327Z,99643.45
2022-08-17T04:02:19.464Z,99646.21
2022-08-17T04:04:50.590Z,99645.95
2022-08-17T04:07:20.681Z,99651.50
2022-08-17T04:09:48.735Z,99657.64
2022-08-17T04:12:18.875Z,99656.09
2022-08-17T04:14:52.076Z,99659.86
2022-08-17T04:17:24.735Z,99658.06
2022-08-17T04:19:53.668Z,99659.98
2022-08-17T04:22:32.656Z,99658.59
2022-08-17T04:25:14.342Z,99664.81
2022-08-17T04:27:42.341Z,99666.50
2022-08-17T04:30:10.651Z,99669.52
2022-08-17T04:33:04.699Z,99672.86
2022-08-17T04:35:38.884Z,99669.87
2022-08-17T04:38:08.518Z,99673.86
2022-08-17T04:40:52.572Z,99671.16
2022-08-17T04:43:22.340Z,99669.83
2022-08-17T04:45:56.268Z,99670.25
2022-08-17T04:48:29.844Z,99668.73
2022-08-17T04:51:11.379Z,99671.48
2022-08-17T04:53:40.932Z,99668.24
2022-08-17T04:56:11.809Z,99670.64
2022-08-17T04:58:46.750Z,99673.27
2022-08-17T05:01:16.316Z,99679.21
2022-08-17T05:03:56.514Z,99678.84
2022-08-17T05:06:25.292Z,99672.84
2022-08-17T05:08:53.730Z,99675.98
2022-08-17T05:11:22.791Z,99681.41
2022-08-17T05:13:50.572Z,99678.24
2022-08-17T05:16:21.188Z,99680.52
2022-08-17T05:18:49.301Z,99684.16
2022-08-17T05:21:18.012Z,99684.11
2022-08-17T05:23:50.346Z,99681.83
2022-08-17T05:26:26.402Z,99680.83
2022-08-17T05:28:57.259Z,99681.73
2022-08-17T05:31:29.344Z,99679.64
2022-08-17T05:33:58.111Z,99681.30
2022-08-17T05:36:42.267Z,99680.88
2022-08-17T05:39:16.319Z,99678.14
2022-08-17T05:41:47.720Z,99674.09
2022-08-17T05:44:16.988Z,99678.81
2022-08-17T05:46:53.742Z,99681.06
2022-08-17T05:49:27.436Z,99687.95
2022-08-17T05:52:20.619Z,99692.36
2022-08-17T05:55:30.448Z,99690.14
2022-08-17T05:58:24.765Z,99686.61
2022-08-17T06:01:17.607Z,99687.10
2022-08-17T06:03:59.318Z,99686.30
2022-08-17T06:06:58.081Z,99688.91
2022-08-17T06:09:33.462Z,99694.87
2022-08-17T06:12:32.033Z,99697.68
2022-08-17T06:15:01.282Z,99696.02
2022-08-17T06:17:30.023Z,99696.04
2022-08-17T06:20:03.296Z,99691.68
2022-08-17T06:22:38.067Z,99694.27
2022-08-17T06:25:22.502Z,99689.41
2022-08-17T06:27:56.578Z,99691.73
2022-08-17T06:30:58.550Z,99689.95
2022-08-17T06:33:22.439Z,99690.46
2022-08-17T06:36:17.764Z,99691.70
2022-08-17T06:39:17.511Z,99693.80
2022-08-17T06:42:09.522Z,99694.61
2022-08-17T06:45:17.937Z,99695.84
2022-08-17T06:48:04.342Z,99696.19
2022-08-17T06:50:40.628Z,99685.49
2022-08-17T06:53:30.180Z,99688.30
2022-08-17T06:56:19.648Z,99689.14
2022-08-17T06:58:48.236Z,99692.16
2022-08-17T07:01:24.796Z,99691.02
2022-08-17T07:04:05.170Z,99693.81
2022-08-17T07:06:48.876Z,99690.94
2022-08-17T07:09:37.367Z,99690.74
2022-08-17T07:12:16.005Z,99686.18
2022-08-17T07:14:58.602Z,99689.73
2022-08-17T07:17:47.058Z,99691.71
2022-08-17T07:20:22.747Z,99696.71
2022-08-17T07:23:08.990Z,99696.67
2022-08-17T07:25:36.683Z,99698.83
2022-08-17T07:28:07.374Z,99699.38
2022-08-17T07:30:45.789Z,99704.73
2022-08-17T07:33:19.920Z,99703.39
2022-08-17T07:35:49.852Z,99705.40
2022-08-17T07:38:28.132Z,99704.65
2022-08-17T07:41:02.320Z,99705.29
2022-08-17T07:43:31.212Z,99706.54
2022-08-17T07:46:31.082Z,99705.41
2022-08-17T07:49:17.466Z,99705.16
2022-08-17T07:51:47.911Z,99709.62
2022-08-17T07:54:15.640Z,99706.13
2022-08-17T07:56:49.953Z,99706.61
2022-08-17T07:59:30.000Z,99708.98
2022-08-17T08:02:28.974Z,99707.81
2022-08-17T08:05:06.741Z,99713.19
2022-08-17T08:07:52.276Z,99715.30
2022-08-17T08:10:38.767Z,99718.49
2022-08-17T08:13:29.525Z,99716.25
2022-08-17T08:16:31.350Z,99714.10
2022-08-17T08:19:01.402Z,99715.77
2022-08-17T08:21:36.552Z,99717.19
2022-08-17T08:24:10.771Z,99712.05
2022-08-17T08:26:48.987Z,99714.58
2022-08-17T08:29:35.590Z,99713.44
2022-08-17T08:32:11.253Z,99711.94
2022-08-17T08:35:02.715Z,99711.78
2022-08-17T08:38:02.226Z,99711.30
2022-08-17T08:40:57.033Z,99710.24
2022-08-17T08:43:43.590Z,99713.73
2022-08-17T08:46:20.119Z,99716.70
2022-08-17T08:49:12.423Z,99714.68
2022-08-17T08:51:56.201Z,99713.59
2022-08-17T08:54:55.770Z,99710.30
2022-08-17T08:57:34.557Z,99710.86
2022-08-17T09:00:12.510Z,99707.83
2022-08-17T09:03:05.151Z,99708.66
2022-08-17T09:06:06.054Z,99711.16
2022-08-17T09:09:36.305Z,99709.51
2022-08-17T09:12:19.956Z,99708.16
2022-08-17T09:14:57.819Z,99705.30
2022-08-17T09:17:47.996Z,99707.83
2022-08-17T09:20:27.164Z,99710.46
2022-08-17T09:23:03.264Z,99709.90
2022-08-17T09:25:34.880Z,99711.64
2022-08-17T09:28:20.766Z,99713.02
2022-08-17T09:30:53.011Z,99713.17
2022-08-17T09:33:28.684Z,99708.90
2022-08-17T09:36:15.605Z,99710.48
2022-08-17T09:39:05.183Z,99707.65
2022-08-17T09:41:48.523Z,99705.70
2022-08-17T09:44:31.060Z,99708.63
2022-08-17T09:47:19.651Z,99709.08
2022-08-17T09:49:55.051Z,99707.77
2022-08-17T09:52:30.349Z,99709.33
2022-08-17T09:55:00.146Z,99703.98
2022-08-17T09:57:43.897Z,99705.17
2022-08-17T10:00:27.249Z,99704.61
2022-08-17T10:03:11.693Z,99703.48
2022-08-17T10:05:49.084Z,99699.34
2022-08-17T10:08:37.450Z,99700.35
2022-08-17T10:11:53.021Z,99698.73
2022-08-17T10:14:53.451Z,99692.59
2022-08-17T10:17:55.523Z,99690.38
2022-08-17T10:20:35.972Z,99693.48
2022-08-17T10:23:28.958Z,99693.83
2022-08-17T10:26:13.590Z,99698.11
2022-08-17T10:29:00.204Z,99698.76
2022-08-17T10:31:35.462Z,99695.56
2022-08-17T10:34:41.184Z,99694.89
2022-08-17T10:37:31.508Z,99694.05
2022-08-17T10:40:21.227Z,99696.92
2022-08-17T10:43:00.536Z,99690.45
2022-08-17T10:45:35.238Z,99692.84
2022-08-17T10:48:06.920Z,99692.81
2022-08-17T10:50:57.621Z,99690.09
2022-08-17T10:53:31.454Z,99688.30
2022-08-17T10:56:16.097Z,99687.93
2022-08-17T10:59:00.732Z,99685.60
2022-08-17T11:01:34.250Z,99687.80
2022-08-17T11:04:27.290Z,99688.61
2022-08-17T11:07:03.975Z,99682.39
2022-08-17T11:09:50.463Z,99685.20
2022-08-17T11:12:40.164Z,99688.83
2022-08-17T11:15:17.608Z,99690.11
2022-08-17T11:18:17.341Z,99687.27
2022-08-17T11:20:55.456Z,99683.79
2022-08-17T11:23:39.831Z,99679.86
2022-08-17T11:26:25.952Z,99675.64
2022-08-17T11:29:01.384Z,99674.92
2022-08-17T11:31:38.498Z,99679.36
2022-08-17T11:34:19.050Z,99681.48
2022-08-17T11:36:49.737Z,99685.56
2022-08-17T11:39:36.820Z,99687.36
2022-08-17T11:42:11.718Z,99686.50
2022-08-17T11:44:51.288Z,99688.29
2022-08-17T11:48:23.825Z,99692.09
2022-08-17T11:51:22.407Z,99689.18
2022-08-17T11:53:49.981Z,99686.13
2022-08-17T11:56:51.065Z,99689.09
2022-08-17T11:59:36.322Z,99697.21
2022-08-17T12:02:31.438Z,99694.06
2022-08-17T12:05:17.838Z,99698.44
2022-08-17T12:08:08.489Z,99693.47
2022-08-17T12:10:48.187Z,99701.41
2022-08-17T12:13:18.584Z,99704.30
2022-08-17T12:15:50.675Z,99713.14
2022-08-17T12:18:25.779Z,99712.29
2022-08-17T12:21:26.318Z,99711.86
2022-08-17T12:24:00.797Z,99709.43
2022-08-17T12:26:33.216Z,99705.29
2022-08-17T12:29:06.314Z,99714.70
2022-08-17T12:31:44.256Z,99725.61
2022-08-17T12:34:16.919Z,99739.97
2022-08-17T12:36:46.225Z,99750.16
2022-08-17T12:39:21.358Z,99758.34
2022-08-17T12:41:54.712Z,99758.87
2022-08-17T12:44:28.026Z,99761.64
2022-08-17T12:46:58.684Z,99759.96
2022-08-17T12:49:35.460Z,99764.23
2022-08-17T12:52:19.071Z,99771.23
2022-08-17T12:55:11.013Z,99764.14
2022-08-17T12:57:38.626Z,99757.23
2022-08-17T13:00:17.387Z,99748.20
2022-08-17T13:02:49.357Z,99733.95
2022-08-17T13:05:37.659Z,99740.34
2022-08-17T13:08:24.550Z,99739.80
2022-08-17T13:10:58.222Z,99727.98
2022-08-17T13:13:28.829Z,99726.09
2022-08-17T13:16:14.230Z,99725.11
2022-08-17T13:18:44.996Z,99729.97
2022-08-17T13:21:19.975Z,99730.54
2022-08-17T13:24:07.768Z,99735.98
2022-08-17T13:26:54.579Z,99735.33
2022-08-17T13:29:30.625Z,99736.14
2022-08-17T13:32:04.806Z,99735.95
2022-08-17T13:35:07.729Z,99730.98
2022-08-17T13:37:32.517Z,99724.67
2022-08-17T13:40:19.103Z,99731.02
2022-08-17T13:42:52.886Z,99733.66
2022-08-17T13:45:44.681Z,99733.39
2022-08-17T13:48:15.400Z,99730.45
2022-08-17T13:50:47.526Z,99727.19
2022-08-17T13:53:35.394Z,99723.29
2022-08-17T13:56:33.391Z,99731.02
2022-08-17T13:59:53.643Z,99740.60
2022-08-17T14:02:14.810Z,99746.09
2022-08-17T14:04:44.436Z,99749.28
2022-08-17T14:07:12.455Z,99758.14
2022-08-17T14:09:41.859Z,99759.88
2022-08-17T14:12:12.410Z,99758.46
2022-08-17T14:14:42.504Z,99748.48
2022-08-17T14:17:12.038Z,99747.39
2022-08-17T14:19:40.078Z,99743.40
2022-08-17T14:22:17.399Z,99739.52
2022-08-17T14:24:45.745Z,99731.46
2022-08-17T14:27:13.354Z,99733.48
2022-08-17T14:29:41.202Z,99732.48
2022-08-17T14:32:18.590Z,99737.03
2022-08-17T14:34:47.376Z,99741.68
2022-08-17T14:37:16.966Z,99744.88
2022-08-17T14:39:49.580Z,99742.88
2022-08-17T14:42:18.453Z,99742.44
2022-08-17T14:44:46.094Z,99742.70
2022-08-17T14:47:14.786Z,99740.17
2022-08-17T14:49:43.543Z,99735.90
2022-08-17T14:52:21.401Z,99741.62
2022-08-17T14:54:53.645Z,99747.63
2022-08-17T14:57:34.023Z,99747.52
2022-08-17T15:00:03.977Z,99751.27
2022-08-17T15:02:53.526Z,99751.79
2022-08-17T15:05:27.306Z,99753.52
2022-08-17T15:07:55.724Z,99753.05
2022-08-17T15:10:25.912Z,99750.55
2022-08-17T15:12:54.402Z,99747.08
2022-08-17T15:15:22.688Z,99744.06
2022-08-17T15:17:51.406Z,99743.30
2022-08-17T15:20:23.942Z,99739.06
2022-08-17T15:22:55.912Z,99730.52
2022-08-17T15:25:27.498Z,99732.51
2022-08-17T15:27:55.770Z,99733.83
2022-08-17T15:30:25.866Z,99726.54
2022-08-17T15:32:56.497Z,99725.16
2022-08-17T15:35:29.099Z,99725.73
2022-08-17T15:38:07.941Z,99728.15
2022-08-17T15:40:44.370Z,99728.43
2022-08-17T15:43:23.470Z,99726.47
2022-08-17T15:46:01.668Z,99725.75
2022-08-17T15:48:47.585Z,99720.98
2022-08-17T15:51:17.836Z,99723.95
2022-08-17T15:53:51.838Z,99734.61
2022-08-17T15:56:19.992Z,99740.84
2022-08-17T15:58:48.582Z,99745.12
2022-08-17T16:02:15.404Z,99746.55
2022-08-17T16:04:30.054Z,99744.98
2022-08-17T16:06:55.605Z,99744.34
2022-08-17T16:09:23.314Z,99739.89
2022-08-17T16:11:53.847Z,99738.08
2022-08-17T16:14:32.441Z,99739.69
2022-08-17T16:17:04.627Z,99741.08
2022-08-17T16:19:34.133Z,99732.30
2022-08-17T16:22:02.670Z,99735.36
2022-08-17T16:24:31.381Z,99735.10
2022-08-17T16:26:59.271Z,99739.98
2022-08-17T16:29:27.892Z,99748.58
2022-08-17T16:31:56.715Z,99747.01
2022-08-17T16:34:24.487Z,99743.18
2022-08-17T16:36:55.744Z,99739.88
2022-08-17T16:39:26.765Z,99749.96
2022-08-17T16:41:56.021Z,99757.61
2022-08-17T16:44:30.823Z,99761.45
2022-08-17T16:47:00.720Z,99757.89
2022-08-17T16:49:37.032Z,99757.05
2022-08-17T16:52:11.080Z,99756.00
2022-08-17T16:54:43.439Z,99760.02
2022-08-17T16:57:13.099Z,99759.10
2022-08-17T16:59:43.911Z,99756.44
2022-08-17T17:02:23.469Z,99752.55
2022-08-17T17:05:11.391Z,99751.35
2022-08-17T17:08:12.780Z,99751.09
2022-08-17T17:10:45.854Z,99757.73
2022-08-17T17:13:31.027Z,99759.30
2022-08-17T17:16:06.054Z,99756.36
2022-08-17T17:18:47.970Z,99756.81
2022-08-17T17:21:19.766Z,99757.52
2022-08-17T17:23:56.080Z,99757.11
2022-08-17T17:26:50.553Z,99759.70
2022-08-17T17:29:48.784Z,99763.02
2022-08-17T17:32:20.929Z,99762.59
2022-08-17T17:35:00.773Z,99763.92
2022-08-17T17:37:33.751Z,99764.20
2022-08-17T17:40:15.435Z,99763.86
2022-08-17T17:42:44.536Z,99764.28
2022-08-17T17:45:25.725Z,99770.23
2022-08-17T17:47:53.624Z,99772.20
2022-08-17T17:50:40.079Z,99766.64
2022-08-17T17:53:15.430Z,99770.20
2022-08-17T17:55:51.769Z,99768.19
2022-08-17T17:58:24.625Z,99770.59
2022-08-17T18:01:24.259Z,99771.89
2022-08-17T18:04:16.978Z,99775.31
2022-08-17T18:07:04.736Z,99782.90
2022-08-17T18:09:51.934Z,99784.05
2022-08-17T18:12:37.630Z,99783.62
2022-08-17T18:15:37.165Z,99788.20
2022-08-17T18:18:37.880Z,99785.25
2022-08-17T18:21:16.370Z,99790.58
2022-08-17T18:24:02.072Z,99789.45
2022-08-17T18:26:32.381Z,99785.16
2022-08-17T18:29:02.469Z,99786.31
2022-08-17T18:31:30.053Z,99786.21
2022-08-17T18:34:45.780Z,99787.47
2022-08-17T18:37:26.409Z,99793.13
2022-08-17T18:39:54.175Z,99792.50
2022-08-17T18:42:28.699Z,99797.44
2022-08-17T18:44:56.431Z,99797.19
2022-08-17T18:47:27.845Z,99799.73
2022-08-17T18:50:19.484Z,99802.69
2022-08-17T18:52:48.530Z,99808.77
2022-08-17T18:55:22.497Z,99806.05
2022-08-17T18:57:53.948Z,99805.80
2022-08-17T19:00:39.268Z,99799.31
2022-08-17T19:03:25.487Z,99800.45
2022-08-17T19:06:21.932Z,99800.21
2022-08-17T19:08:49.541Z,99801.16
2022-08-17T19:11:23.866Z,99800.53
2022-08-17T19:14:00.814Z,99801.94
2022-08-17T19:16:54.014Z,99808.70
2022-08-17T19:19:45.331Z,99810.38
2022-08-17T19:22:28.511Z,99817.70
2022-08-17T19:25:05.939Z,99825.69
2022-08-17T19:27:49.199Z,99838.14
2022-08-17T19:30:17.824Z,99844.14
2022-08-17T19:32:45.754Z,99844.59
2022-08-17T19:35:17.488Z,99844.78
2022-08-17T19:38:22.078Z,99854.21
2022-08-17T19:41:21.682Z,99864.93
2022-08-17T19:44:11.507Z,99864.58
2022-08-17T19:47:12.062Z,99862.84
2022-08-17T19:49:52.235Z,99859.77
2022-08-17T19:52:46.512Z,99857.41
2022-08-17T19:55:24.522Z,99855.33
2022-08-17T19:58:10.306Z,99853.20
2022-08-17T20:00:47.718Z,99855.17
2022-08-17T20:03:22.020Z,99855.81
2022-08-17T20:06:12.219Z,99858.56
2022-08-17T20:08:53.839Z,99864.81
2022-08-17T20:11:33.319Z,99864.70
2022-08-17T20:14:32.822Z,99867.13
2022-08-17T20:17:03.021Z,99869.85
2022-08-17T20:19:36.551Z,99867.38
2022-08-17T20:22:11.776Z,99860.85
2022-08-17T20:24:52.523Z,99860.61
2022-08-17T20:27:47.761Z,99866.23
2022-08-17T20:30:23.963Z,99862.87
2022-08-17T20:32:55.446Z,99867.45
2022-08-17T20:35:35.387Z,99867.38
2022-08-17T20:38:07.029Z,99870.52
2022-08-17T20:40:36.637Z,99872.65
2022-08-17T20:43:43.098Z,99875.41
2022-08-17T20:46:26.747Z,99874.63
2022-08-17T20:49:21.695Z,99877.27
2022-08-17T20:52:08.354Z,99872.38
2022-08-17T20:54:57.898Z,99866.81
2022-08-17T20:57:34.294Z,99862.27
2022-08-17T21:00:33.883Z,99864.05
2022-08-17T21:03:49.176Z,99873.23
2022-08-17T21:06:21.230Z,99872.80
2022-08-17T21:09:13.077Z,99871.29
2022-08-17T21:12:02.797Z,99869.45
2022-08-17T21:15:03.612Z,99869.57
2022-08-17T21:17:43.409Z,99871.55
2022-08-17T21:20:39.579Z,99868.79
2022-08-17T21:23:26.102Z,99866.36
2022-08-17T21:26:17.418Z,99864.69
2022-08-17T21:29:30.402Z,99868.52
2022-08-17T21:32:01.604Z,99863.80
2022-08-17T21:34:35.868Z,99866.11
2022-08-17T21:37:42.000Z,99866.39
2022-08-17T21:40:18.739Z,99862.19
2022-08-17T21:42:50.518Z,99859.64
2022-08-17T21:45:22.194Z,99865.58
2022-08-17T21:48:19.526Z,99871.09
2022-08-17T21:51:10.211Z,99874.16
2022-08-17T21:53:44.640Z,99876.83
2022-08-17T21:56:22.051Z,99881.05
2022-08-17T21:58:57.159Z,99879.08
2022-08-17T22:01:42.857Z,99866.64
2022-08-17T22:04:11.552Z,99855.86
2022-08-17T22:06:56.685Z,99849.34
2022-08-17T22:09:46.888Z,99844.83
2022-08-17T22:12:22.064Z,99850.07
2022-08-17T22:14:54.213Z,99854.34
2022-08-17T22:17:39.988Z,99853.04
2022-08-17T22:20:11.471Z,99854.69
2022-08-17T22:23:14.964Z,99850.84
2022-08-17T22:26:06.070Z,99852.33
2022-08-17T22:28:49.845Z,99850.82
2022-08-17T22:31:26.678Z,99848.83
2022-08-17T22:34:14.350Z,99843.54
2022-08-17T22:36:42.540Z,99841.67
2022-08-17T22:39:10.173Z,99842.30
2022-08-17T22:41:55.643Z,99838.34
2022-08-17T22:44:29.954Z,99840.38
2022-08-17T22:47:13.470Z,99836.94
2022-08-17T22:49:53.797Z,99840.15
2022-08-17T22:52:56.113Z,99847.20
2022-08-17T22:55:40.379Z,99848.23
2022-08-17T22:58:30.958Z,99849.77
2022-08-17T23:01:23.056Z,99846.05
2022-08-17T23:04:03.981Z,99840.09
2022-08-17T23:06:33.773Z,99844.69
2022-08-17T23:09:04.016Z,99847.84
2022-08-17T23:11:48.736Z,99847.62
2022-08-17T23:14:19.751Z,99847.80
2022-08-17T23:16:49.978Z,99849.40
2022-08-17T23:19:20.798Z,99847.70
2022-08-17T23:21:53.697Z,99847.59
2022-08-17T23:24:27.464Z,99850.46
2022-08-17T23:26:57.378Z,99847.94
2022-08-17T23:29:29.154Z,99853.20
2022-08-17T23:31:59.938Z,99855.56
2022-08-17T23:34:28.341Z,99856.65
2022-08-17T23:36:56.010Z,99857.70
2022-08-17T23:39:28.066Z,99859.64
2022-08-17T23:41:58.712Z,99857.43
2022-08-17T23:44:28.636Z,99858.21
2022-08-17T23:46:57.213Z,99858.64
2022-08-17T23:49:25.220Z,99862.72
2022-08-17T23:51:56.551Z,99861.49
2022-08-17T23:54:43.779Z,99857.20
2022-08-17T23:57:13.494Z,99860.55
2022-08-17T23:59:43.700Z,99861.77
